createdAt,value
2018-07-12T00:02:25.794Z,7.90
2018-07-12T00:05:58.057Z,7.87
2018-07-12T00:09:30.317Z,7.80
2018-07-12T00:13:02.560Z,9.37
2018-07-12T00:16:34.830Z,9.50
2018-07-12T00:20:07.088Z,12.20
2018-07-12T00:23:39.337Z,9.90
2018-07-12T00:27:11.581Z,10.30
2018-07-12T00:30:43.816Z,11.87
2018-07-12T00:34:16.075Z,11.43
2018-07-12T00:37:48.429Z,12.20
2018-07-12T00:41:20.672Z,11.13
2018-07-12T00:44:52.941Z,12.33
2018-07-12T00:48:25.209Z,11.03
2018-07-12T00:51:57.467Z,10.53
2018-07-12T00:55:29.741Z,11.20
2018-07-12T00:59:02.025Z,10.90
2018-07-12T01:02:34.277Z,10.33
2018-07-12T01:06:06.521Z,9.47
2018-07-12T01:09:38.813Z,9.70
2018-07-12T01:13:11.078Z,11.47
2018-07-12T01:16:43.329Z,10.43
2018-07-12T01:20:15.604Z,10.67
2018-07-12T01:23:47.865Z,10.30
2018-07-12T01:27:20.109Z,11.60
2018-07-12T01:30:52.352Z,10.90
2018-07-12T01:34:24.605Z,10.27
2018-07-12T01:37:56.869Z,10.50
2018-07-12T01:41:29.137Z,10.10
2018-07-12T01:45:01.406Z,10.00
2018-07-12T01:48:33.720Z,10.10
2018-07-12T01:52:05.985Z,9.50
2018-07-12T01:55:38.273Z,10.00
2018-07-12T01:59:10.526Z,9.93
2018-07-12T02:02:42.788Z,10.70
2018-07-12T02:06:15.055Z,10.00
2018-07-12T02:09:47.312Z,10.90
2018-07-12T02:13:19.583Z,9.93
2018-07-12T02:16:51.873Z,10.50
2018-07-12T02:20:24.092Z,9.90
2018-07-12T02:23:56.340Z,8.87
2018-07-12T02:27:28.867Z,9.47
2018-07-12T02:31:01.084Z,9.50
2018-07-12T02:34:33.357Z,8.97
2018-07-12T02:38:05.843Z,10.10
2018-07-12T02:41:38.101Z,10.83
2018-07-12T02:45:10.604Z,8.87
2018-07-12T02:48:42.859Z,10.03
2018-07-12T02:52:15.805Z,9.80
2018-07-12T02:55:48.074Z,9.97
2018-07-12T02:59:20.334Z,9.50
2018-07-12T03:02:52.596Z,10.40
2018-07-12T03:06:25.113Z,10.40
2018-07-12T03:09:57.369Z,12.07
2018-07-12T03:13:29.625Z,10.10
2018-07-12T03:17:02.132Z,11.60
2018-07-12T03:20:34.377Z,12.20
2018-07-12T03:24:06.884Z,11.10
2018-07-12T03:27:39.120Z,12.27
2018-07-12T03:31:11.377Z,11.50
2018-07-12T03:34:43.640Z,12.30
2018-07-12T03:38:15.950Z,12.80
2018-07-12T03:41:48.210Z,12.20
2018-07-12T03:45:20.486Z,13.10
2018-07-12T03:48:52.755Z,14.30
2018-07-12T03:52:25.031Z,13.07
2018-07-12T03:55:57.294Z,12.17
2018-07-12T03:59:29.536Z,12.93
2018-07-12T04:03:02.032Z,15.13
2018-07-12T04:06:34.288Z,14.43
2018-07-12T04:10:07.000Z,14.50
2018-07-12T04:13:40.595Z,15.10
2018-07-12T04:17:17.341Z,14.40
2018-07-12T04:20:49.592Z,14.70
2018-07-12T04:24:21.949Z,13.53
2018-07-12T04:27:54.323Z,14.83
2018-07-12T04:31:26.907Z,13.97
2018-07-12T04:34:59.240Z,16.60
2018-07-12T04:38:31.507Z,16.90
2018-07-12T04:42:03.922Z,16.40
2018-07-12T04:45:36.171Z,18.80
2018-07-12T04:49:08.408Z,17.83
2018-07-12T04:52:40.649Z,18.17
2018-07-12T04:56:13.065Z,18.80
2018-07-12T04:59:45.291Z,20.30
2018-07-12T05:03:17.565Z,19.50
2018-07-12T05:06:49.812Z,19.47
2018-07-12T05:10:22.054Z,20.47
2018-07-12T05:13:54.733Z,21.47
2018-07-12T05:17:27.245Z,20.37
2018-07-12T05:20:59.812Z,23.50
2018-07-12T05:24:32.119Z,20.27
2018-07-12T05:28:04.489Z,22.80
2018-07-12T05:31:36.726Z,21.03
2018-07-12T05:35:09.018Z,21.07
2018-07-12T05:38:42.285Z,20.93
2018-07-12T05:42:15.561Z,18.97
2018-07-12T05:45:48.973Z,21.07
2018-07-12T05:49:22.236Z,19.40
2018-07-12T05:52:55.481Z,19.33
2018-07-12T05:56:28.748Z,18.70
2018-07-12T06:00:01.982Z,18.93
2018-07-12T06:03:35.257Z,19.50
2018-07-12T06:07:08.568Z,17.93
2018-07-12T06:10:41.829Z,19.00
2018-07-12T06:14:15.426Z,20.00
2018-07-12T06:17:48.696Z,19.60
2018-07-12T06:21:22.024Z,18.73
2018-07-12T06:24:55.299Z,20.80
2018-07-12T06:28:28.339Z,18.13
2018-07-12T06:32:01.598Z,21.80
2018-07-12T06:35:34.876Z,20.60
2018-07-12T06:39:09.669Z,21.57
2018-07-12T06:42:42.994Z,22.33
2018-07-12T06:46:16.208Z,21.50
2018-07-12T06:49:49.465Z,20.60
2018-07-12T06:53:22.746Z,21.77
2018-07-12T06:56:56.192Z,19.73
2018-07-12T07:00:29.494Z,21.50
2018-07-12T07:04:02.743Z,18.73
2018-07-12T07:07:35.997Z,16.07
2018-07-12T07:11:09.374Z,20.13
2018-07-12T07:14:42.673Z,18.37
2018-07-12T07:18:15.892Z,18.77
2018-07-12T07:21:49.140Z,17.53
2018-07-12T07:25:22.396Z,18.83
2018-07-12T07:28:55.697Z,19.40
2018-07-12T07:32:28.983Z,18.00
2018-07-12T07:36:01.960Z,18.80
2018-07-12T07:39:35.200Z,18.60
2018-07-12T07:43:08.552Z,19.27
2018-07-12T07:46:41.731Z,19.17
2018-07-12T07:50:15.017Z,18.33
2018-07-12T07:53:48.275Z,18.13
2018-07-12T07:57:21.537Z,17.03
2018-07-12T08:00:54.778Z,17.63
2018-07-12T08:04:28.017Z,18.23
2018-07-12T08:08:01.265Z,18.60
2018-07-12T08:11:34.548Z,15.20
2018-07-12T08:15:07.806Z,17.87
2018-07-12T08:18:41.116Z,17.10
2018-07-12T08:22:14.388Z,15.40
2018-07-12T08:25:47.627Z,16.57
2018-07-12T08:29:20.888Z,15.87
2018-07-12T08:32:54.148Z,15.90
2018-07-12T08:36:27.417Z,16.30
2018-07-12T08:40:00.669Z,14.93
2018-07-12T08:43:33.940Z,15.00
2018-07-12T08:47:07.188Z,13.80
2018-07-12T08:50:40.465Z,13.73
2018-07-12T08:54:13.460Z,12.53
2018-07-12T08:57:47.190Z,13.17
2018-07-12T09:01:20.464Z,13.53
2018-07-12T09:04:54.417Z,12.70
2018-07-12T09:08:27.706Z,12.30
2018-07-12T09:12:00.978Z,12.27
2018-07-12T09:15:34.273Z,12.20
2018-07-12T09:19:07.503Z,11.93
2018-07-12T09:22:41.025Z,9.53
2018-07-12T09:26:14.300Z,9.47
2018-07-12T09:29:47.530Z,8.67
2018-07-12T09:33:20.780Z,8.80
2018-07-12T09:36:54.631Z,9.13
2018-07-12T09:40:27.913Z,8.00
2018-07-12T09:44:00.910Z,9.33
2018-07-12T09:47:34.286Z,9.33
2018-07-12T09:51:08.068Z,9.53
2018-07-12T09:54:41.346Z,8.80
2018-07-12T09:58:26.817Z,11.13
2018-07-12T10:02:05.390Z,10.27
2018-07-12T10:05:43.842Z,10.57
2018-07-12T10:09:22.372Z,9.50
2018-07-12T10:13:01.095Z,10.67
2018-07-12T10:16:39.606Z,9.03
2018-07-12T10:20:12.834Z,8.77
2018-07-12T10:23:46.136Z,8.80
2018-07-12T10:27:19.411Z,8.03
2018-07-12T10:30:52.395Z,7.90
2018-07-12T10:34:25.633Z,9.20
2018-07-12T10:37:58.876Z,7.73
2018-07-12T10:41:32.128Z,6.60
2018-07-12T10:45:05.422Z,7.83
2018-07-12T10:48:38.673Z,7.80
2018-07-12T10:52:11.929Z,7.83
2018-07-12T10:55:45.213Z,6.90
2018-07-12T10:59:18.434Z,7.17
2018-07-12T11:02:51.688Z,6.63
2018-07-12T11:06:24.931Z,5.87
2018-07-12T11:09:58.180Z,5.23
2018-07-12T11:13:42.701Z,5.63
2018-07-12T11:17:15.933Z,5.60
2018-07-12T11:20:49.176Z,5.70
2018-07-12T11:24:22.449Z,5.77
2018-07-12T11:27:55.725Z,4.90
2018-07-12T11:31:28.965Z,5.90
2018-07-12T11:35:02.216Z,4.90
2018-07-12T11:38:36.920Z,5.97
2018-07-12T11:42:10.176Z,5.57
2018-07-12T11:45:43.449Z,5.47
2018-07-12T11:49:16.696Z,6.53
2018-07-12T11:52:49.991Z,4.33
2018-07-12T11:56:23.222Z,5.80
2018-07-12T11:59:56.508Z,4.50
2018-07-12T12:03:29.779Z,4.30
2018-07-12T12:07:03.036Z,4.40
2018-07-12T12:10:36.296Z,4.40
2018-07-12T12:14:09.558Z,4.33
2018-07-12T12:17:42.821Z,4.60
2018-07-12T12:21:16.070Z,4.13
2018-07-12T12:24:49.338Z,5.53
2018-07-12T12:28:22.600Z,4.77
2018-07-12T12:31:55.852Z,4.30
2018-07-12T12:35:29.099Z,3.60
2018-07-12T12:39:02.334Z,4.20
2018-07-12T12:42:35.589Z,5.27
2018-07-12T12:46:08.844Z,4.40
2018-07-12T12:49:42.075Z,4.40
2018-07-12T12:53:15.344Z,3.90
2018-07-12T12:56:48.584Z,4.83
2018-07-12T13:00:21.842Z,3.80
2018-07-12T13:03:55.098Z,3.20
2018-07-12T13:07:28.092Z,3.40
2018-07-12T13:11:01.329Z,3.73
2018-07-12T13:14:34.737Z,3.73
2018-07-12T13:18:07.888Z,3.87
2018-07-12T13:21:41.194Z,3.90
2018-07-12T13:25:16.874Z,3.17
2018-07-12T13:28:53.978Z,3.63
2018-07-12T13:32:30.065Z,3.90
2018-07-12T13:36:05.917Z,6.43
2018-07-12T13:39:39.252Z,6.60
2018-07-12T13:43:12.531Z,20.57
2018-07-12T13:46:56.083Z,3.90
2018-07-12T13:50:31.282Z,3.60
2018-07-12T13:54:05.733Z,4.50
2018-07-12T13:57:40.007Z,3.63
2018-07-12T14:01:13.414Z,4.13
2018-07-12T14:04:53.122Z,7.07
2018-07-12T14:08:27.540Z,3.60
2018-07-12T14:12:01.623Z,4.60
2018-07-12T14:15:37.674Z,6.90
2018-07-12T14:19:12.767Z,3.37
2018-07-12T14:22:47.224Z,8.07
2018-07-12T14:26:22.657Z,5.37
2018-07-12T14:29:56.461Z,3.87
2018-07-12T14:33:31.144Z,3.87
2018-07-12T14:37:04.589Z,4.10
2018-07-12T14:40:40.024Z,3.77
2018-07-12T14:44:14.301Z,4.80
2018-07-12T14:47:48.385Z,3.20
2018-07-12T14:51:22.096Z,3.57
2018-07-12T14:54:56.123Z,3.93
2018-07-12T14:58:30.482Z,3.03
2018-07-12T15:02:04.331Z,3.60
2018-07-12T15:05:38.498Z,3.60
2018-07-12T15:09:12.471Z,4.10
2018-07-12T15:12:46.059Z,3.50
2018-07-12T15:16:20.295Z,3.40
2018-07-12T15:19:54.593Z,3.60
2018-07-12T15:23:28.098Z,3.87
2018-07-12T15:27:01.390Z,4.10
2018-07-12T15:30:34.656Z,3.87
2018-07-12T15:34:07.937Z,3.90
2018-07-12T15:37:41.212Z,3.60
2018-07-12T15:41:14.461Z,3.00
2018-07-12T15:44:47.936Z,3.20
2018-07-12T15:48:20.948Z,3.40
2018-07-12T15:51:54.202Z,3.70
2018-07-12T15:55:27.467Z,3.80
2018-07-12T15:59:00.728Z,3.77
2018-07-12T16:02:33.965Z,3.00
2018-07-12T16:06:07.226Z,3.50
2018-07-12T16:09:40.535Z,3.53
2018-07-12T16:13:13.817Z,3.53
2018-07-12T16:16:47.241Z,3.13
2018-07-12T16:20:20.488Z,3.77
2018-07-12T16:23:53.733Z,3.23
2018-07-12T16:27:26.999Z,3.53
2018-07-12T16:31:00.445Z,3.43
2018-07-12T16:34:33.737Z,3.27
2018-07-12T16:38:06.978Z,3.53
2018-07-12T16:41:40.211Z,4.20
2018-07-12T16:45:13.583Z,3.67
2018-07-12T16:48:47.173Z,3.80
2018-07-12T16:52:20.432Z,3.97
2018-07-12T16:55:53.681Z,3.97
2018-07-12T16:59:26.972Z,3.80
2018-07-12T17:03:00.285Z,3.60
2018-07-12T17:06:33.547Z,3.50
2018-07-12T17:10:06.815Z,3.10
2018-07-12T17:13:40.081Z,3.87
2018-07-12T17:17:13.308Z,3.10
2018-07-12T17:20:46.568Z,3.53
2018-07-12T17:24:19.803Z,3.40
2018-07-12T17:27:53.059Z,3.13
2018-07-12T17:31:26.312Z,3.50
2018-07-12T17:34:59.573Z,3.60
2018-07-12T17:38:32.833Z,3.83
2018-07-12T17:42:06.425Z,4.30
2018-07-12T17:45:39.897Z,3.57
2018-07-12T17:49:13.184Z,4.13
2018-07-12T17:52:48.672Z,4.50
2018-07-12T17:56:22.241Z,3.37
2018-07-12T17:59:55.774Z,4.03
2018-07-12T18:03:29.022Z,3.97
2018-07-12T18:07:01.997Z,5.23
2018-07-12T18:10:35.280Z,4.13
2018-07-12T18:14:08.528Z,7.67
2018-07-12T18:17:41.519Z,9.20
2018-07-12T18:21:14.764Z,4.70
2018-07-12T18:24:48.166Z,4.20
2018-07-12T18:28:21.460Z,3.50
2018-07-12T18:31:55.489Z,7.53
2018-07-12T18:35:28.760Z,5.73
2018-07-12T18:39:02.052Z,3.90
2018-07-12T18:42:35.372Z,3.40
2018-07-12T18:46:09.476Z,3.45
2018-07-12T18:49:42.713Z,4.30
2018-07-12T18:53:15.984Z,3.80
2018-07-12T18:56:49.244Z,3.97
2018-07-12T19:00:22.492Z,4.30
2018-07-12T19:03:55.762Z,3.50
2018-07-12T19:07:29.201Z,3.43
2018-07-12T19:11:02.439Z,3.70
2018-07-12T19:14:35.689Z,4.50
2018-07-12T19:18:09.036Z,4.00
2018-07-12T19:21:42.607Z,4.30
2018-07-12T19:25:15.853Z,4.37
2018-07-12T19:28:49.121Z,4.60
2018-07-12T19:32:22.402Z,4.10
2018-07-12T19:35:55.860Z,4.23
2018-07-12T19:39:29.361Z,4.90
2018-07-12T19:46:58.653Z,4.90
2018-07-12T19:50:31.893Z,5.10
2018-07-12T19:54:05.189Z,5.57
2018-07-12T19:57:38.498Z,4.77
2018-07-12T20:01:12.461Z,4.63
2018-07-12T20:04:45.774Z,4.20
2018-07-12T20:08:19.117Z,4.30
2018-07-12T20:11:52.423Z,5.20
2018-07-12T20:15:25.691Z,5.40
2018-07-12T20:18:58.929Z,4.50
2018-07-12T20:22:32.170Z,4.90
2018-07-12T20:26:05.565Z,5.10
2018-07-12T20:29:38.829Z,4.20
2018-07-12T20:33:12.065Z,4.93
2018-07-12T20:36:45.361Z,5.20
2018-07-12T20:40:18.408Z,5.47
2018-07-12T20:43:51.961Z,5.33
2018-07-12T20:47:26.446Z,5.53
2018-07-12T20:50:59.706Z,4.70
2018-07-12T20:54:33.003Z,5.40
2018-07-12T20:58:06.313Z,5.10
2018-07-12T21:01:39.593Z,4.70
2018-07-12T21:05:12.888Z,4.80
2018-07-12T21:08:45.924Z,5.03
2018-07-12T21:12:19.177Z,5.20
2018-07-12T21:15:52.408Z,5.23
2018-07-12T21:19:25.735Z,5.30
2018-07-12T21:22:58.972Z,5.13
2018-07-12T21:26:32.204Z,4.80
2018-07-12T21:30:08.362Z,4.87
2018-07-12T21:33:41.759Z,5.00
2018-07-12T21:37:14.879Z,5.00
2018-07-12T21:40:48.232Z,4.47
2018-07-12T21:44:21.507Z,5.13
2018-07-12T21:47:54.707Z,5.40
2018-07-12T21:51:27.949Z,5.30
2018-07-12T21:55:01.198Z,5.27
2018-07-12T21:58:34.429Z,5.47
2018-07-12T22:02:07.731Z,5.77
2018-07-12T22:05:40.976Z,5.07
2018-07-12T22:09:14.233Z,5.50
2018-07-12T22:12:47.483Z,5.50
2018-07-12T22:16:20.737Z,5.70
2018-07-12T22:19:53.977Z,5.60
2018-07-12T22:23:27.228Z,5.47
2018-07-12T22:27:00.501Z,5.50
2018-07-12T22:30:33.826Z,5.10
2018-07-12T22:34:07.017Z,5.10
2018-07-12T22:37:40.256Z,5.17
2018-07-12T22:41:13.507Z,4.77
2018-07-12T22:44:46.829Z,4.73
2018-07-12T22:48:20.193Z,5.40
2018-07-12T22:51:53.446Z,5.10
2018-07-12T22:55:26.437Z,5.23
2018-07-12T22:58:59.677Z,5.40
2018-07-12T23:02:32.905Z,4.70
2018-07-12T23:06:06.165Z,5.30
2018-07-12T23:09:39.429Z,4.87
2018-07-12T23:13:12.669Z,5.37
2018-07-12T23:16:45.914Z,5.93
2018-07-12T23:20:19.172Z,5.93
2018-07-12T23:23:52.428Z,5.30
2018-07-12T23:27:25.673Z,6.57
2018-07-12T23:30:59.212Z,5.60
2018-07-12T23:34:32.460Z,6.23
2018-07-12T23:38:05.689Z,6.13
2018-07-12T23:41:38.917Z,6.13
2018-07-12T23:45:13.259Z,6.80
2018-07-12T23:48:46.512Z,6.20
2018-07-12T23:52:19.755Z,6.10
2018-07-12T23:55:52.987Z,5.87
2018-07-12T23:59:26.220Z,6.13
